Terminal Aerodrome Forecast
Issued by NWS

Home | Current Version | Previous Version | Text Only | Print | Product List | Glossary On
Versions: 1 2 3 4 5 6 7 8 9 10 11 12 13 14 15 16 17 18 19 20
000
FTUS46 KSEW 031700
TAFPAE
TAF
KPAE 031720Z 0318/0418 VRB03KT P6SM SCT010 OVC025
      TEMPO 0318/0320 BKN010 OVC025
     FM032000 31006KT P6SM BKN025 BKN060
     FM032200 35006KT P6SM SCT040 BKN060 BKN120
     FM040600 01004KT P6SM OVC030=

USA.gov is the U.S. government's official web portal to all federal, state and local government web resources and services.